Terminal Aerodrome Forecast
Issued by NWS Pocatello, ID

Home | Current Version | Previous Version | Text Only | Print | Product List | Glossary On
Versions: 1 2 3 4 5 6 7 8 9 10 11 12 13 14 15 16 17 18 19 20 21 22 23 24 25
000
FTUS45 KPIH 280500
TAFBYI
TAF
KBYI 280520Z 2806/2906 22009KT 6SM -RA BR SCT010 OVC020
     FM280800 24009KT 4SM -SHRA BR BKN007 OVC015
     FM281200 28010KT P6SM SCT007 OVC015
     FM281800 28010KT P6SM OVC025
     FM290300 VRB03KT 6SM BR SCT008 OVC015=

USA.gov is the U.S. government's official web portal to all federal, state and local government web resources and services.